sensor_id;sensor_type;location;lat;lon;timestamp;temperature;humidity
44607;DHT22;30315;46.072;14.474;2022-07-04T00:00:17;27.50;59.80
44607;DHT22;30315;46.072;14.474;2022-07-04T00:02:45;27.50;59.20
44607;DHT22;30315;46.072;14.474;2022-07-04T00:05:13;27.50;59.20
44607;DHT22;30315;46.072;14.474;2022-07-04T00:07:42;27.50;59.20
44607;DHT22;30315;46.072;14.474;2022-07-04T00:10:11;27.60;59.30
44607;DHT22;30315;46.072;14.474;2022-07-04T00:12:39;27.50;59.10
44607;DHT22;30315;46.072;14.474;2022-07-04T00:15:07;27.50;59.30
44607;DHT22;30315;46.072;14.474;2022-07-04T00:17:34;27.50;59.30
44607;DHT22;30315;46.072;14.474;2022-07-04T00:20:02;27.50;59.50
44607;DHT22;30315;46.072;14.474;2022-07-04T00:22:30;27.50;59.20
44607;DHT22;30315;46.072;14.474;2022-07-04T00:24:57;27.50;59.30
44607;DHT22;30315;46.072;14.474;2022-07-04T00:27:24;27.50;59.50
44607;DHT22;30315;46.072;14.474;2022-07-04T00:29:51;27.50;59.20
44607;DHT22;30315;46.072;14.474;2022-07-04T00:32:18;27.50;59.30
44607;DHT22;30315;46.072;14.474;2022-07-04T00:34:45;27.40;59.40
44607;DHT22;30315;46.072;14.474;2022-07-04T00:37:13;27.40;59.20
44607;DHT22;30315;46.072;14.474;2022-07-04T00:39:40;27.40;59.30
44607;DHT22;30315;46.072;14.474;2022-07-04T00:42:09;27.40;59.60
44607;DHT22;30315;46.072;14.474;2022-07-04T00:44:35;27.10;59.40
44607;DHT22;30315;46.072;14.474;2022-07-04T00:47:04;27.40;59.80
44607;DHT22;30315;46.072;14.474;2022-07-04T00:49:32;27.30;59.60
44607;DHT22;30315;46.072;14.474;2022-07-04T00:52:00;27.40;59.60
44607;DHT22;30315;46.072;14.474;2022-07-04T00:54:30;27.40;59.50
44607;DHT22;30315;46.072;14.474;2022-07-04T00:56:58;27.10;59.40
44607;DHT22;30315;46.072;14.474;2022-07-04T00:59:26;27.20;59.70
44607;DHT22;30315;46.072;14.474;2022-07-04T01:01:54;27.10;60.00
44607;DHT22;30315;46.072;14.474;2022-07-04T01:04:21;27.10;59.90
44607;DHT22;30315;46.072;14.474;2022-07-04T01:06:48;27.10;60.00
44607;DHT22;30315;46.072;14.474;2022-07-04T01:09:16;27.00;60.00
44607;DHT22;30315;46.072;14.474;2022-07-04T01:11:43;27.00;60.00
44607;DHT22;30315;46.072;14.474;2022-07-04T01:14:11;26.90;60.40
44607;DHT22;30315;46.072;14.474;2022-07-04T01:16:38;26.80;60.20
44607;DHT22;30315;46.072;14.474;2022-07-04T01:19:05;26.80;60.50
44607;DHT22;30315;46.072;14.474;2022-07-04T01:21:32;26.80;60.80
44607;DHT22;30315;46.072;14.474;2022-07-04T01:23:59;26.80;61.00
44607;DHT22;30315;46.072;14.474;2022-07-04T01:26:28;26.80;60.90
44607;DHT22;30315;46.072;14.474;2022-07-04T01:28:55;26.80;60.80
44607;DHT22;30315;46.072;14.474;2022-07-04T01:31:22;26.80;61.00
44607;DHT22;30315;46.072;14.474;2022-07-04T01:33:49;26.70;61.00
44607;DHT22;30315;46.072;14.474;2022-07-04T01:36:16;26.70;60.70
44607;DHT22;30315;46.072;14.474;2022-07-04T01:38:43;26.60;61.10
44607;DHT22;30315;46.072;14.474;2022-07-04T01:41:10;26.60;61.30
44607;DHT22;30315;46.072;14.474;2022-07-04T01:43:37;26.50;61.10
44607;DHT22;30315;46.072;14.474;2022-07-04T01:46:04;26.50;61.60
44607;DHT22;30315;46.072;14.474;2022-07-04T01:48:31;26.50;61.60
44607;DHT22;30315;46.072;14.474;2022-07-04T01:50:58;26.40;61.40
44607;DHT22;30315;46.072;14.474;2022-07-04T01:53:25;26.40;61.60
44607;DHT22;30315;46.072;14.474;2022-07-04T01:55:52;26.30;61.80
44607;DHT22;30315;46.072;14.474;2022-07-04T01:58:19;26.30;61.90
44607;DHT22;30315;46.072;14.474;2022-07-04T02:00:46;26.30;62.20
44607;DHT22;30315;46.072;14.474;2022-07-04T02:03:32;26.30;62.30
44607;DHT22;30315;46.072;14.474;2022-07-04T02:05:59;26.30;62.20
44607;DHT22;30315;46.072;14.474;2022-07-04T02:08:26;26.30;62.30
44607;DHT22;30315;46.072;14.474;2022-07-04T02:14:16;26.20;62.60
44607;DHT22;30315;46.072;14.474;2022-07-04T02:16:43;26.20;62.80
44607;DHT22;30315;46.072;14.474;2022-07-04T02:19:10;26.10;62.90
44607;DHT22;30315;46.072;14.474;2022-07-04T02:21:37;26.10;63.40
44607;DHT22;30315;46.072;14.474;2022-07-04T02:24:04;26.10;62.50
44607;DHT22;30315;46.072;14.474;2022-07-04T02:26:31;26.10;63.10
44607;DHT22;30315;46.072;14.474;2022-07-04T02:28:58;26.10;63.20
44607;DHT22;30315;46.072;14.474;2022-07-04T02:31:26;26.00;63.20
44607;DHT22;30315;46.072;14.474;2022-07-04T02:33:53;25.90;63.50
44607;DHT22;30315;46.072;14.474;2022-07-04T02:36:20;25.90;63.70
44607;DHT22;30315;46.072;14.474;2022-07-04T02:38:47;26.00;63.90
44607;DHT22;30315;46.072;14.474;2022-07-04T02:41:14;25.90;63.80
44607;DHT22;30315;46.072;14.474;2022-07-04T02:43:41;25.90;64.10
44607;DHT22;30315;46.072;14.474;2022-07-04T02:46:08;25.90;63.40
44607;DHT22;30315;46.072;14.474;2022-07-04T02:48:37;25.80;63.40
44607;DHT22;30315;46.072;14.474;2022-07-04T02:51:05;25.80;63.50
44607;DHT22;30315;46.072;14.474;2022-07-04T02:53:32;25.80;63.40
44607;DHT22;30315;46.072;14.474;2022-07-04T02:55:59;25.70;63.00
44607;DHT22;30315;46.072;14.474;2022-07-04T02:58:30;25.70;63.50
44607;DHT22;30315;46.072;14.474;2022-07-04T03:00:58;25.70;63.30
44607;DHT22;30315;46.072;14.474;2022-07-04T03:03:25;25.60;63.70
44607;DHT22;30315;46.072;14.474;2022-07-04T03:05:52;25.50;63.90
44607;DHT22;30315;46.072;14.474;2022-07-04T03:08:19;25.60;63.80
44607;DHT22;30315;46.072;14.474;2022-07-04T03:10:46;25.50;63.90
44607;DHT22;30315;46.072;14.474;2022-07-04T03:13:15;25.40;64.00
44607;DHT22;30315;46.072;14.474;2022-07-04T03:15:42;25.40;64.20
44607;DHT22;30315;46.072;14.474;2022-07-04T03:18:09;25.30;64.30
44607;DHT22;30315;46.072;14.474;2022-07-04T03:20:36;25.30;64.60
44607;DHT22;30315;46.072;14.474;2022-07-04T03:23:03;25.30;64.60
44607;DHT22;30315;46.072;14.474;2022-07-04T03:25:30;25.30;64.70
44607;DHT22;30315;46.072;14.474;2022-07-04T03:27:57;25.30;64.90
44607;DHT22;30315;46.072;14.474;2022-07-04T03:30:24;25.20;64.60
44607;DHT22;30315;46.072;14.474;2022-07-04T03:32:51;25.20;65.40
44607;DHT22;30315;46.072;14.474;2022-07-04T03:35:18;25.20;65.10
44607;DHT22;30315;46.072;14.474;2022-07-04T03:37:45;25.20;65.00
44607;DHT22;30315;46.072;14.474;2022-07-04T03:40:12;25.60;65.30
44607;DHT22;30315;46.072;14.474;2022-07-04T03:42:39;25.20;65.10
44607;DHT22;30315;46.072;14.474;2022-07-04T03:45:06;25.10;65.10
44607;DHT22;30315;46.072;14.474;2022-07-04T03:47:33;25.10;65.10
44607;DHT22;30315;46.072;14.474;2022-07-04T03:50:00;25.20;65.20
44607;DHT22;30315;46.072;14.474;2022-07-04T03:52:28;25.20;65.20
44607;DHT22;30315;46.072;14.474;2022-07-04T03:54:54;25.30;65.30
44607;DHT22;30315;46.072;14.474;2022-07-04T03:57:22;25.30;65.30
44607;DHT22;30315;46.072;14.474;2022-07-04T03:59:49;25.30;65.40
44607;DHT22;30315;46.072;14.474;2022-07-04T04:02:16;25.30;65.00
44607;DHT22;30315;46.072;14.474;2022-07-04T04:04:43;25.30;65.00
44607;DHT22;30315;46.072;14.474;2022-07-04T04:07:29;25.30;65.10
44607;DHT22;30315;46.072;14.474;2022-07-04T04:09:56;25.40;65.30
44607;DHT22;30315;46.072;14.474;2022-07-04T04:12:23;25.40;65.40
44607;DHT22;30315;46.072;14.474;2022-07-04T04:14:50;25.40;65.40
44607;DHT22;30315;46.072;14.474;2022-07-04T04:17:17;25.50;65.50
44607;DHT22;30315;46.072;14.474;2022-07-04T04:19:44;25.50;65.80
44607;DHT22;30315;46.072;14.474;2022-07-04T04:22:11;25.50;65.70
44607;DHT22;30315;46.072;14.474;2022-07-04T04:24:38;25.50;65.60
44607;DHT22;30315;46.072;14.474;2022-07-04T04:27:05;25.50;65.40
44607;DHT22;30315;46.072;14.474;2022-07-04T04:29:32;25.50;65.70
44607;DHT22;30315;46.072;14.474;2022-07-04T04:31:59;25.50;65.50
44607;DHT22;30315;46.072;14.474;2022-07-04T04:34:26;25.50;65.20
44607;DHT22;30315;46.072;14.474;2022-07-04T04:36:53;25.50;65.30
44607;DHT22;30315;46.072;14.474;2022-07-04T04:39:20;25.50;65.20
44607;DHT22;30315;46.072;14.474;2022-07-04T04:41:47;25.50;65.20
44607;DHT22;30315;46.072;14.474;2022-07-04T04:44:14;25.50;65.40
44607;DHT22;30315;46.072;14.474;2022-07-04T04:46:41;25.50;65.60
44607;DHT22;30315;46.072;14.474;2022-07-04T04:49:08;25.50;65.60
44607;DHT22;30315;46.072;14.474;2022-07-04T04:51:35;25.60;65.60
44607;DHT22;30315;46.072;14.474;2022-07-04T04:54:02;25.50;66.20
44607;DHT22;30315;46.072;14.474;2022-07-04T04:56:29;25.60;65.70
44607;DHT22;30315;46.072;14.474;2022-07-04T04:58:56;25.60;65.60
44607;DHT22;30315;46.072;14.474;2022-07-04T05:01:23;25.60;65.80
44607;DHT22;30315;46.072;14.474;2022-07-04T05:04:07;25.60;65.40
44607;DHT22;30315;46.072;14.474;2022-07-04T05:06:35;25.50;65.70
44607;DHT22;30315;46.072;14.474;2022-07-04T05:09:02;25.50;66.00
44607;DHT22;30315;46.072;14.474;2022-07-04T05:11:29;25.60;66.10
44607;DHT22;30315;46.072;14.474;2022-07-04T05:13:56;25.60;65.90
44607;DHT22;30315;46.072;14.474;2022-07-04T05:16:23;25.60;65.90
44607;DHT22;30315;46.072;14.474;2022-07-04T05:18:50;25.60;65.90
44607;DHT22;30315;46.072;14.474;2022-07-04T05:21:17;25.60;65.70
44607;DHT22;30315;46.072;14.474;2022-07-04T05:23:44;25.70;65.80
44607;DHT22;30315;46.072;14.474;2022-07-04T05:26:11;25.70;66.40
44607;DHT22;30315;46.072;14.474;2022-07-04T05:28:38;25.70;65.50
44607;DHT22;30315;46.072;14.474;2022-07-04T05:31:05;25.60;65.70
44607;DHT22;30315;46.072;14.474;2022-07-04T05:33:32;25.60;65.30
44607;DHT22;30315;46.072;14.474;2022-07-04T05:35:59;25.60;65.40
44607;DHT22;30315;46.072;14.474;2022-07-04T05:38:26;25.70;65.40
44607;DHT22;30315;46.072;14.474;2022-07-04T05:40:53;25.70;65.60
44607;DHT22;30315;46.072;14.474;2022-07-04T05:43:20;25.70;65.20
44607;DHT22;30315;46.072;14.474;2022-07-04T05:45:48;25.80;65.50
44607;DHT22;30315;46.072;14.474;2022-07-04T05:48:15;25.80;65.40
44607;DHT22;30315;46.072;14.474;2022-07-04T05:50:48;25.90;65.50
44607;DHT22;30315;46.072;14.474;2022-07-04T05:53:15;25.90;65.40
44607;DHT22;30315;46.072;14.474;2022-07-04T05:55:42;26.00;65.20
44607;DHT22;30315;46.072;14.474;2022-07-04T05:58:09;26.00;64.70
44607;DHT22;30315;46.072;14.474;2022-07-04T06:00:36;26.00;64.80
44607;DHT22;30315;46.072;14.474;2022-07-04T06:03:06;26.10;64.50
44607;DHT22;30315;46.072;14.474;2022-07-04T06:05:34;26.10;64.60
44607;DHT22;30315;46.072;14.474;2022-07-04T06:08:01;26.20;64.70
44607;DHT22;30315;46.072;14.474;2022-07-04T06:10:29;26.20;64.70
44607;DHT22;30315;46.072;14.474;2022-07-04T06:12:57;26.30;64.70
44607;DHT22;30315;46.072;14.474;2022-07-04T06:15:24;26.30;64.90
44607;DHT22;30315;46.072;14.474;2022-07-04T06:17:51;26.40;64.70
44607;DHT22;30315;46.072;14.474;2022-07-04T06:20:18;26.40;64.80
44607;DHT22;30315;46.072;14.474;2022-07-04T06:22:48;26.50;65.60
44607;DHT22;30315;46.072;14.474;2022-07-04T06:25:18;26.50;64.50
44607;DHT22;30315;46.072;14.474;2022-07-04T06:27:49;26.60;64.60
44607;DHT22;30315;46.072;14.474;2022-07-04T06:30:16;26.60;64.10
44607;DHT22;30315;46.072;14.474;2022-07-04T06:32:50;26.70;63.90
44607;DHT22;30315;46.072;14.474;2022-07-04T06:35:20;26.70;63.50
44607;DHT22;30315;46.072;14.474;2022-07-04T06:38:06;26.70;63.20
44607;DHT22;30315;46.072;14.474;2022-07-04T06:40:33;26.70;62.80
44607;DHT22;30315;46.072;14.474;2022-07-04T06:43:01;26.90;62.80
44607;DHT22;30315;46.072;14.474;2022-07-04T06:45:28;26.90;62.50
44607;DHT22;30315;46.072;14.474;2022-07-04T06:47:56;26.90;62.10
44607;DHT22;30315;46.072;14.474;2022-07-04T06:50:23;26.90;61.70
44607;DHT22;30315;46.072;14.474;2022-07-04T06:53:07;26.90;61.50
44607;DHT22;30315;46.072;14.474;2022-07-04T06:55:34;27.00;61.20
44607;DHT22;30315;46.072;14.474;2022-07-04T06:58:01;27.00;61.80
44607;DHT22;30315;46.072;14.474;2022-07-04T07:00:29;27.00;61.20
44607;DHT22;30315;46.072;14.474;2022-07-04T07:02:59;27.00;61.00
44607;DHT22;30315;46.072;14.474;2022-07-04T07:05:28;27.00;61.00
44607;DHT22;30315;46.072;14.474;2022-07-04T07:08:15;27.10;60.90
44607;DHT22;30315;46.072;14.474;2022-07-04T07:10:42;27.10;60.90
44607;DHT22;30315;46.072;14.474;2022-07-04T07:13:09;27.10;61.30
44607;DHT22;30315;46.072;14.474;2022-07-04T07:15:37;27.20;61.50
44607;DHT22;30315;46.072;14.474;2022-07-04T07:18:04;27.20;61.40
44607;DHT22;30315;46.072;14.474;2022-07-04T07:20:32;27.20;61.10
44607;DHT22;30315;46.072;14.474;2022-07-04T07:23:03;27.30;61.10
44607;DHT22;30315;46.072;14.474;2022-07-04T07:25:31;27.30;61.40
44607;DHT22;30315;46.072;14.474;2022-07-04T07:27:58;27.30;61.40
44607;DHT22;30315;46.072;14.474;2022-07-04T07:30:25;27.40;61.30
44607;DHT22;30315;46.072;14.474;2022-07-04T07:32:53;27.40;61.10
44607;DHT22;30315;46.072;14.474;2022-07-04T07:35:20;27.50;60.80
44607;DHT22;30315;46.072;14.474;2022-07-04T07:37:48;27.50;60.10
44607;DHT22;30315;46.072;14.474;2022-07-04T07:40:15;27.50;60.30
44607;DHT22;30315;46.072;14.474;2022-07-04T07:42:42;27.60;60.00
44607;DHT22;30315;46.072;14.474;2022-07-04T07:45:09;27.70;59.60
44607;DHT22;30315;46.072;14.474;2022-07-04T07:47:36;27.70;59.70
44607;DHT22;30315;46.072;14.474;2022-07-04T07:50:04;27.80;59.80
44607;DHT22;30315;46.072;14.474;2022-07-04T07:52:31;27.90;59.80
44607;DHT22;30315;46.072;14.474;2022-07-04T07:54:58;27.90;59.50
44607;DHT22;30315;46.072;14.474;2022-07-04T07:57:28;28.00;59.40
44607;DHT22;30315;46.072;14.474;2022-07-04T07:59:55;28.00;59.10
44607;DHT22;30315;46.072;14.474;2022-07-04T08:02:23;28.10;58.80
44607;DHT22;30315;46.072;14.474;2022-07-04T08:05:10;28.10;58.80
44607;DHT22;30315;46.072;14.474;2022-07-04T08:07:38;28.10;57.90
44607;DHT22;30315;46.072;14.474;2022-07-04T08:10:05;28.20;58.00
44607;DHT22;30315;46.072;14.474;2022-07-04T08:12:34;28.20;57.70
44607;DHT22;30315;46.072;14.474;2022-07-04T08:15:01;28.20;57.60
44607;DHT22;30315;46.072;14.474;2022-07-04T08:17:34;28.30;57.80
44607;DHT22;30315;46.072;14.474;2022-07-04T08:20:05;28.40;57.80
44607;DHT22;30315;46.072;14.474;2022-07-04T08:22:33;28.50;57.70
44607;DHT22;30315;46.072;14.474;2022-07-04T08:25:01;28.50;58.00
44607;DHT22;30315;46.072;14.474;2022-07-04T08:27:28;28.60;57.60
44607;DHT22;30315;46.072;14.474;2022-07-04T08:29:59;28.60;57.30
44607;DHT22;30315;46.072;14.474;2022-07-04T08:32:26;28.70;57.30
44607;DHT22;30315;46.072;14.474;2022-07-04T08:34:54;28.70;57.00
44607;DHT22;30315;46.072;14.474;2022-07-04T08:37:23;28.80;56.50
44607;DHT22;30315;46.072;14.474;2022-07-04T08:39:51;28.80;56.30
44607;DHT22;30315;46.072;14.474;2022-07-04T08:42:19;29.00;56.20
44607;DHT22;30315;46.072;14.474;2022-07-04T08:44:51;29.10;55.70
44607;DHT22;30315;46.072;14.474;2022-07-04T08:47:20;29.20;55.10
44607;DHT22;30315;46.072;14.474;2022-07-04T08:50:03;29.20;55.10
44607;DHT22;30315;46.072;14.474;2022-07-04T08:52:39;29.30;54.40
44607;DHT22;30315;46.072;14.474;2022-07-04T08:55:11;29.30;54.40
44607;DHT22;30315;46.072;14.474;2022-07-04T08:57:57;29.30;54.10
44607;DHT22;30315;46.072;14.474;2022-07-04T09:00:43;29.40;54.40
44607;DHT22;30315;46.072;14.474;2022-07-04T09:03:10;29.40;54.10
44607;DHT22;30315;46.072;14.474;2022-07-04T09:05:38;29.50;54.20
44607;DHT22;30315;46.072;14.474;2022-07-04T09:08:05;29.60;54.50
44607;DHT22;30315;46.072;14.474;2022-07-04T09:10:32;29.60;54.70
44607;DHT22;30315;46.072;14.474;2022-07-04T09:13:02;29.60;54.30
44607;DHT22;30315;46.072;14.474;2022-07-04T09:15:40;29.60;53.70
44607;DHT22;30315;46.072;14.474;2022-07-04T09:18:19;29.70;53.60
44607;DHT22;30315;46.072;14.474;2022-07-04T09:20:47;29.70;53.40
44607;DHT22;30315;46.072;14.474;2022-07-04T09:23:25;29.80;52.90
44607;DHT22;30315;46.072;14.474;2022-07-04T09:26:09;29.80;52.80
44607;DHT22;30315;46.072;14.474;2022-07-04T09:28:37;29.90;52.40
44607;DHT22;30315;46.072;14.474;2022-07-04T09:31:22;30.00;51.80
44607;DHT22;30315;46.072;14.474;2022-07-04T09:34:01;30.00;51.50
44607;DHT22;30315;46.072;14.474;2022-07-04T09:36:32;30.10;51.10
44607;DHT22;30315;46.072;14.474;2022-07-04T09:39:03;30.20;50.20
44607;DHT22;30315;46.072;14.474;2022-07-04T09:41:31;30.30;49.40
44607;DHT22;30315;46.072;14.474;2022-07-04T09:44:05;30.30;49.10
44607;DHT22;30315;46.072;14.474;2022-07-04T09:46:33;30.40;48.80
44607;DHT22;30315;46.072;14.474;2022-07-04T09:49:03;30.40;48.40
44607;DHT22;30315;46.072;14.474;2022-07-04T09:51:41;30.50;48.00
44607;DHT22;30315;46.072;14.474;2022-07-04T09:54:19;30.60;47.70
44607;DHT22;30315;46.072;14.474;2022-07-04T09:56:50;30.50;47.10
44607;DHT22;30315;46.072;14.474;2022-07-04T09:59:21;30.80;47.20
44607;DHT22;30315;46.072;14.474;2022-07-04T10:01:49;31.00;46.40
44607;DHT22;30315;46.072;14.474;2022-07-04T10:04:16;31.10;46.50
44607;DHT22;30315;46.072;14.474;2022-07-04T10:06:44;31.10;46.50
44607;DHT22;30315;46.072;14.474;2022-07-04T10:09:30;31.20;46.10
44607;DHT22;30315;46.072;14.474;2022-07-04T10:12:02;31.40;45.90
44607;DHT22;30315;46.072;14.474;2022-07-04T10:14:30;31.40;45.80
44607;DHT22;30315;46.072;14.474;2022-07-04T10:16:57;31.70;46.10
44607;DHT22;30315;46.072;14.474;2022-07-04T10:19:28;31.60;45.90
44607;DHT22;30315;46.072;14.474;2022-07-04T10:21:55;31.80;45.80
44607;DHT22;30315;46.072;14.474;2022-07-04T10:24:22;31.80;46.00
44607;DHT22;30315;46.072;14.474;2022-07-04T10:26:49;32.00;46.40
44607;DHT22;30315;46.072;14.474;2022-07-04T10:29:16;32.00;45.90
44607;DHT22;30315;46.072;14.474;2022-07-04T10:31:44;32.10;45.50
44607;DHT22;30315;46.072;14.474;2022-07-04T10:34:11;32.20;45.60
44607;DHT22;30315;46.072;14.474;2022-07-04T10:36:38;32.20;45.30
44607;DHT22;30315;46.072;14.474;2022-07-04T10:39:05;32.30;45.50
44607;DHT22;30315;46.072;14.474;2022-07-04T10:41:33;32.30;44.90
44607;DHT22;30315;46.072;14.474;2022-07-04T10:44:04;32.40;44.30
44607;DHT22;30315;46.072;14.474;2022-07-04T10:46:49;32.50;44.90
44607;DHT22;30315;46.072;14.474;2022-07-04T10:49:21;32.70;44.20
44607;DHT22;30315;46.072;14.474;2022-07-04T10:51:50;32.80;44.30
44607;DHT22;30315;46.072;14.474;2022-07-04T10:59:19;33.20;43.40
44607;DHT22;30315;46.072;14.474;2022-07-04T11:05:08;33.60;42.70
44607;DHT22;30315;46.072;14.474;2022-07-04T11:17:56;33.80;42.50
44607;DHT22;30315;46.072;14.474;2022-07-04T11:20:24;33.90;41.60
44607;DHT22;30315;46.072;14.474;2022-07-04T11:22:52;34.10;41.10
44607;DHT22;30315;46.072;14.474;2022-07-04T11:25:19;34.20;41.00
44607;DHT22;30315;46.072;14.474;2022-07-04T11:27:46;34.40;40.80
44607;DHT22;30315;46.072;14.474;2022-07-04T11:30:13;34.50;40.90
44607;DHT22;30315;46.072;14.474;2022-07-04T11:32:42;34.70;39.40
44607;DHT22;30315;46.072;14.474;2022-07-04T11:35:09;34.80;39.00
44607;DHT22;30315;46.072;14.474;2022-07-04T11:37:36;34.90;39.00
44607;DHT22;30315;46.072;14.474;2022-07-04T11:40:04;35.00;39.00
44607;DHT22;30315;46.072;14.474;2022-07-04T11:43:08;35.20;39.20
44607;DHT22;30315;46.072;14.474;2022-07-04T11:45:54;35.30;39.40
44607;DHT22;30315;46.072;14.474;2022-07-04T11:48:26;35.40;38.20
44607;DHT22;30315;46.072;14.474;2022-07-04T11:50:54;35.50;38.30
44607;DHT22;30315;46.072;14.474;2022-07-04T11:53:21;35.60;38.20
44607;DHT22;30315;46.072;14.474;2022-07-04T11:55:56;35.60;38.10
44607;DHT22;30315;46.072;14.474;2022-07-04T11:58:24;35.60;37.90
44607;DHT22;30315;46.072;14.474;2022-07-04T12:00:51;35.50;37.90
44607;DHT22;30315;46.072;14.474;2022-07-04T12:03:18;35.40;37.80
44607;DHT22;30315;46.072;14.474;2022-07-04T12:05:46;35.40;38.10
44607;DHT22;30315;46.072;14.474;2022-07-04T12:08:13;35.20;38.50
44607;DHT22;30315;46.072;14.474;2022-07-04T12:10:56;35.50;38.80
44607;DHT22;30315;46.072;14.474;2022-07-04T12:13:23;35.60;38.20
44607;DHT22;30315;46.072;14.474;2022-07-04T12:15:52;35.60;37.40
44607;DHT22;30315;46.072;14.474;2022-07-04T12:18:23;35.60;37.80
44607;DHT22;30315;46.072;14.474;2022-07-04T12:20:52;35.60;38.90
44607;DHT22;30315;46.072;14.474;2022-07-04T12:23:21;35.70;39.80
44607;DHT22;30315;46.072;14.474;2022-07-04T12:25:50;35.90;40.10
44607;DHT22;30315;46.072;14.474;2022-07-04T12:28:19;35.90;39.30
44607;DHT22;30315;46.072;14.474;2022-07-04T12:30:54;36.00;38.60
44607;DHT22;30315;46.072;14.474;2022-07-04T12:33:25;36.00;38.00
44607;DHT22;30315;46.072;14.474;2022-07-04T12:35:57;35.90;37.30
44607;DHT22;30315;46.072;14.474;2022-07-04T12:41:10;35.90;38.50
44607;DHT22;30315;46.072;14.474;2022-07-04T12:46:09;35.90;39.00
44607;DHT22;30315;46.072;14.474;2022-07-04T12:48:38;35.90;39.00
44607;DHT22;30315;46.072;14.474;2022-07-04T12:51:14;35.90;39.60
44607;DHT22;30315;46.072;14.474;2022-07-04T12:53:43;35.90;40.40
44607;DHT22;30315;46.072;14.474;2022-07-04T12:58:54;36.00;40.20
44607;DHT22;30315;46.072;14.474;2022-07-04T13:01:24;36.10;40.70
44607;DHT22;30315;46.072;14.474;2022-07-04T13:03:54;36.10;39.90
44607;DHT22;30315;46.072;14.474;2022-07-04T13:06:25;36.20;41.00
44607;DHT22;30315;46.072;14.474;2022-07-04T13:09:04;36.30;40.70
44607;DHT22;30315;46.072;14.474;2022-07-04T13:11:34;36.20;41.00
44607;DHT22;30315;46.072;14.474;2022-07-04T13:14:20;36.40;41.10
44607;DHT22;30315;46.072;14.474;2022-07-04T13:16:48;36.40;40.90
44607;DHT22;30315;46.072;14.474;2022-07-04T13:19:15;36.50;41.10
44607;DHT22;30315;46.072;14.474;2022-07-04T13:21:48;36.40;40.90
44607;DHT22;30315;46.072;14.474;2022-07-04T13:24:15;36.40;40.60
44607;DHT22;30315;46.072;14.474;2022-07-04T13:26:42;36.30;40.90
44607;DHT22;30315;46.072;14.474;2022-07-04T13:29:09;36.10;41.30
44607;DHT22;30315;46.072;14.474;2022-07-04T13:31:38;36.00;41.10
44607;DHT22;30315;46.072;14.474;2022-07-04T13:34:06;35.90;41.10
44607;DHT22;30315;46.072;14.474;2022-07-04T13:36:33;35.80;41.00
44607;DHT22;30315;46.072;14.474;2022-07-04T13:39:00;35.60;41.00
44607;DHT22;30315;46.072;14.474;2022-07-04T13:41:32;35.40;41.00
44607;DHT22;30315;46.072;14.474;2022-07-04T13:44:16;35.30;41.20
44607;DHT22;30315;46.072;14.474;2022-07-04T13:47:14;35.10;41.30
44607;DHT22;30315;46.072;14.474;2022-07-04T13:50:09;35.00;41.70
44607;DHT22;30315;46.072;14.474;2022-07-04T13:52:40;34.90;42.10
44607;DHT22;30315;46.072;14.474;2022-07-04T13:55:10;34.70;43.00
44607;DHT22;30315;46.072;14.474;2022-07-04T13:57:37;34.30;48.00
44607;DHT22;30315;46.072;14.474;2022-07-04T14:00:05;34.00;51.40
44607;DHT22;30315;46.072;14.474;2022-07-04T14:02:33;33.60;53.50
44607;DHT22;30315;46.072;14.474;2022-07-04T14:05:01;33.30;54.80
44607;DHT22;30315;46.072;14.474;2022-07-04T14:07:29;33.00;55.30
44607;DHT22;30315;46.072;14.474;2022-07-04T14:09:56;32.80;57.00
44607;DHT22;30315;46.072;14.474;2022-07-04T14:12:25;32.80;58.90
44607;DHT22;30315;46.072;14.474;2022-07-04T14:14:52;32.90;60.40
44607;DHT22;30315;46.072;14.474;2022-07-04T14:17:19;33.00;60.70
44607;DHT22;30315;46.072;14.474;2022-07-04T14:20:04;33.20;60.70
44607;DHT22;30315;46.072;14.474;2022-07-04T14:22:33;33.30;59.60
44607;DHT22;30315;46.072;14.474;2022-07-04T14:25:00;33.40;59.50
44607;DHT22;30315;46.072;14.474;2022-07-04T14:27:27;33.60;60.00
44607;DHT22;30315;46.072;14.474;2022-07-04T14:29:54;33.90;60.20
44607;DHT22;30315;46.072;14.474;2022-07-04T14:32:22;34.20;58.00
44607;DHT22;30315;46.072;14.474;2022-07-04T14:34:49;34.40;57.20
44607;DHT22;30315;46.072;14.474;2022-07-04T14:37:16;34.30;57.00
44607;DHT22;30315;46.072;14.474;2022-07-04T14:39:43;34.30;57.50
44607;DHT22;30315;46.072;14.474;2022-07-04T14:42:10;34.40;57.80
44607;DHT22;30315;46.072;14.474;2022-07-04T14:44:37;34.50;58.00
44607;DHT22;30315;46.072;14.474;2022-07-04T14:47:05;34.70;57.30
44607;DHT22;30315;46.072;14.474;2022-07-04T14:49:37;34.70;55.30
44607;DHT22;30315;46.072;14.474;2022-07-04T14:52:05;34.60;54.60
44607;DHT22;30315;46.072;14.474;2022-07-04T14:54:32;34.60;54.40
44607;DHT22;30315;46.072;14.474;2022-07-04T14:56:59;34.50;53.40
44607;DHT22;30315;46.072;14.474;2022-07-04T14:59:26;34.50;52.70
44607;DHT22;30315;46.072;14.474;2022-07-04T15:01:53;34.60;53.00
44607;DHT22;30315;46.072;14.474;2022-07-04T15:04:20;34.80;52.60
44607;DHT22;30315;46.072;14.474;2022-07-04T15:06:48;35.20;52.30
44607;DHT22;30315;46.072;14.474;2022-07-04T15:09:16;35.50;51.00
44607;DHT22;30315;46.072;14.474;2022-07-04T15:11:44;35.80;50.60
44607;DHT22;30315;46.072;14.474;2022-07-04T15:14:14;36.00;49.90
44607;DHT22;30315;46.072;14.474;2022-07-04T15:16:41;36.40;49.30
44607;DHT22;30315;46.072;14.474;2022-07-04T15:19:09;36.50;48.70
44607;DHT22;30315;46.072;14.474;2022-07-04T15:21:36;36.80;47.30
44607;DHT22;30315;46.072;14.474;2022-07-04T15:24:21;36.90;46.40
44607;DHT22;30315;46.072;14.474;2022-07-04T15:26:50;37.20;44.30
44607;DHT22;30315;46.072;14.474;2022-07-04T15:29:19;37.30;43.30
44607;DHT22;30315;46.072;14.474;2022-07-04T15:31:47;37.50;43.00
44607;DHT22;30315;46.072;14.474;2022-07-04T15:34:15;37.70;42.80
44607;DHT22;30315;46.072;14.474;2022-07-04T15:36:43;37.80;42.40
44607;DHT22;30315;46.072;14.474;2022-07-04T15:39:16;38.00;40.90
44607;DHT22;30315;46.072;14.474;2022-07-04T15:41:43;38.30;41.00
44607;DHT22;30315;46.072;14.474;2022-07-04T15:44:12;38.30;40.80
44607;DHT22;30315;46.072;14.474;2022-07-04T15:46:39;38.40;40.30
44607;DHT22;30315;46.072;14.474;2022-07-04T15:49:26;38.50;39.80
44607;DHT22;30315;46.072;14.474;2022-07-04T15:51:53;38.60;39.30
44607;DHT22;30315;46.072;14.474;2022-07-04T15:54:20;38.80;39.00
44607;DHT22;30315;46.072;14.474;2022-07-04T15:56:47;38.90;38.40